createdAt,value
2022-09-14T00:00:02.425Z,6.00
2022-09-14T00:02:37.411Z,5.18
2022-09-14T00:05:05.471Z,5.30
2022-09-14T00:07:32.902Z,5.40
2022-09-14T00:10:00.812Z,4.80
2022-09-14T00:12:28.288Z,5.05
2022-09-14T00:14:55.836Z,4.60
2022-09-14T00:17:23.601Z,4.47
2022-09-14T00:19:51.191Z,4.57
2022-09-14T00:22:18.665Z,4.78
2022-09-14T00:24:46.286Z,4.32
2022-09-14T00:27:13.865Z,5.03
2022-09-14T00:29:41.416Z,5.05
2022-09-14T00:32:08.978Z,4.47
2022-09-14T00:34:36.566Z,4.90
2022-09-14T00:37:04.362Z,4.88
2022-09-14T00:39:31.901Z,6.05
2022-09-14T00:41:59.764Z,6.18
2022-09-14T00:44:27.225Z,6.90
2022-09-14T00:46:57.436Z,6.00
2022-09-14T00:49:31.306Z,6.03
2022-09-14T00:54:28.851Z,6.07
2022-09-14T00:56:59.424Z,5.30
2022-09-14T00:59:31.063Z,5.15
2022-09-14T01:01:58.834Z,4.88
2022-09-14T01:04:26.440Z,4.80
2022-09-14T01:07:06.776Z,4.93
2022-09-14T01:09:56.124Z,4.63
2022-09-14T01:12:30.226Z,4.75
2022-09-14T01:15:12.193Z,5.07
2022-09-14T01:17:45.405Z,5.18
2022-09-14T01:20:27.085Z,5.47
2022-09-14T01:23:21.120Z,5.07
2022-09-14T01:26:20.534Z,5.07
2022-09-14T01:28:56.935Z,5.05
2022-09-14T01:31:46.004Z,5.13
2022-09-14T01:34:39.043Z,5.38
2022-09-14T01:37:26.262Z,5.20
2022-09-14T01:40:00.666Z,4.65
2022-09-14T01:42:29.543Z,4.97
2022-09-14T01:45:01.572Z,5.38
2022-09-14T01:47:39.964Z,5.38
2022-09-14T01:50:23.035Z,5.10
2022-09-14T01:52:56.523Z,4.65
2022-09-14T01:55:36.943Z,4.85
2022-09-14T01:58:25.883Z,4.93
2022-09-14T02:00:56.906Z,5.10
2022-09-14T02:03:31.543Z,5.07
2022-09-14T02:06:09.414Z,5.53
2022-09-14T02:08:37.522Z,4.72
2022-09-14T02:11:05.083Z,4.53
2022-09-14T02:13:33.651Z,4.45
2022-09-14T02:16:01.454Z,4.93
2022-09-14T02:18:29.314Z,4.65
2022-09-14T02:21:04.414Z,5.60
2022-09-14T02:23:32.371Z,6.47
2022-09-14T02:25:59.790Z,5.63
2022-09-14T02:28:27.333Z,5.57
2022-09-14T02:31:16.380Z,5.18
2022-09-14T02:33:59.914Z,5.45
2022-09-14T02:37:15.650Z,5.57
2022-09-14T02:40:12.084Z,5.78
2022-09-14T02:42:44.030Z,5.85
2022-09-14T02:45:43.717Z,5.95
2022-09-14T02:48:31.392Z,5.72
2022-09-14T02:51:06.572Z,5.65
2022-09-14T02:53:46.378Z,5.25
2022-09-14T02:56:15.335Z,4.93
2022-09-14T02:58:45.640Z,5.70
2022-09-14T03:01:16.843Z,4.75
2022-09-14T03:03:44.527Z,5.00
2022-09-14T03:06:12.813Z,6.10
2022-09-14T03:08:41.352Z,5.15
2022-09-14T03:11:08.983Z,6.05
2022-09-14T03:13:37.525Z,5.35
2022-09-14T03:16:07.402Z,5.00
2022-09-14T03:18:35.955Z,5.13
2022-09-14T03:21:08.340Z,4.97
2022-09-14T03:23:37.915Z,4.80
2022-09-14T03:26:14.483Z,5.10
2022-09-14T03:28:42.690Z,5.13
2022-09-14T03:31:11.652Z,5.38
2022-09-14T03:33:39.668Z,5.40
2022-09-14T03:36:12.702Z,5.53
2022-09-14T03:38:44.103Z,5.67
2022-09-14T03:41:13.343Z,5.35
2022-09-14T03:43:41.793Z,6.00
2022-09-14T03:46:14.608Z,5.72
2022-09-14T03:48:42.734Z,5.65
2022-09-14T03:51:12.964Z,5.95
2022-09-14T03:53:42.069Z,5.68
2022-09-14T03:56:15.670Z,5.55
2022-09-14T03:58:45.138Z,6.47
2022-09-14T04:01:16.099Z,5.32
2022-09-14T04:03:44.463Z,5.28
2022-09-14T04:06:12.432Z,5.13
2022-09-14T04:08:41.566Z,4.80
2022-09-14T04:11:12.167Z,5.82
2022-09-14T04:13:40.640Z,5.47
2022-09-14T04:16:08.569Z,5.45
2022-09-14T04:18:36.369Z,5.80
2022-09-14T04:21:10.467Z,6.45
2022-09-14T04:23:56.963Z,6.35
2022-09-14T04:26:28.022Z,5.20
2022-09-14T04:28:56.689Z,6.10
2022-09-14T04:31:24.893Z,5.20
2022-09-14T04:33:56.374Z,4.80
2022-09-14T04:36:28.596Z,4.72
2022-09-14T04:38:58.393Z,4.78
2022-09-14T04:41:26.782Z,4.97
2022-09-14T04:43:56.043Z,5.22
2022-09-14T04:46:26.624Z,6.05
2022-09-14T04:48:54.794Z,4.38
2022-09-14T04:51:25.093Z,4.75
2022-09-14T04:53:56.425Z,4.63
2022-09-14T04:56:24.635Z,4.75
2022-09-14T04:58:55.577Z,5.05
2022-09-14T05:01:25.816Z,4.80
2022-09-14T05:03:54.080Z,5.07
2022-09-14T05:06:24.281Z,6.30
2022-09-14T05:08:52.632Z,7.15
2022-09-14T05:11:22.395Z,8.18
2022-09-14T05:13:51.103Z,9.95
2022-09-14T05:16:21.393Z,8.73
2022-09-14T05:18:49.896Z,9.05
2022-09-14T05:21:19.533Z,7.38
2022-09-14T05:23:47.183Z,6.90
2022-09-14T05:26:15.133Z,6.03
2022-09-14T05:28:42.645Z,8.75
2022-09-14T05:31:13.237Z,9.45
2022-09-14T05:33:40.929Z,7.28
2022-09-14T05:36:09.124Z,7.53
2022-09-14T05:38:39.184Z,7.47
2022-09-14T05:41:08.304Z,6.43
2022-09-14T05:43:35.812Z,7.53
2022-09-14T05:46:10.120Z,6.30
2022-09-14T05:48:39.386Z,6.40
2022-09-14T05:51:11.573Z,5.95
2022-09-14T05:53:39.069Z,5.50
2022-09-14T05:56:11.569Z,6.40
2022-09-14T05:58:40.414Z,6.00
2022-09-14T06:01:12.321Z,6.03
2022-09-14T06:03:40.974Z,6.25
2022-09-14T06:06:10.643Z,7.45
2022-09-14T06:08:38.553Z,6.43
2022-09-14T06:11:12.183Z,6.90
2022-09-14T06:13:39.692Z,6.47
2022-09-14T06:16:09.683Z,6.15
2022-09-14T06:18:38.171Z,7.10
2022-09-14T06:21:06.860Z,6.38
2022-09-14T06:23:34.573Z,7.22
2022-09-14T06:26:04.525Z,6.57
2022-09-14T06:28:33.179Z,6.32
2022-09-14T06:31:01.434Z,5.57
2022-09-14T06:33:29.032Z,6.07
2022-09-14T06:36:02.083Z,6.25
2022-09-14T06:38:30.242Z,5.67
2022-09-14T06:40:59.778Z,5.22
2022-09-14T06:43:30.090Z,5.57
2022-09-14T06:46:04.193Z,5.03
2022-09-14T06:48:37.384Z,4.88
2022-09-14T06:51:29.644Z,4.70
2022-09-14T06:54:01.674Z,5.75
2022-09-14T06:56:32.611Z,5.35
2022-09-14T06:59:00.304Z,5.97
2022-09-14T07:01:28.055Z,5.93
2022-09-14T07:03:56.212Z,6.20
2022-09-14T07:06:25.904Z,5.47
2022-09-14T07:08:54.528Z,7.55
2022-09-14T07:11:29.671Z,5.90
2022-09-14T07:14:00.147Z,6.18
2022-09-14T07:16:28.923Z,6.28
2022-09-14T07:18:58.149Z,7.00
2022-09-14T07:21:26.525Z,6.78
2022-09-14T07:23:55.751Z,6.97
2022-09-14T07:26:28.402Z,8.60
2022-09-14T07:28:59.000Z,9.35
2022-09-14T07:31:35.495Z,9.23
2022-09-14T07:34:05.010Z,8.27
2022-09-14T07:36:35.243Z,6.95
2022-09-14T07:39:05.758Z,8.20
2022-09-14T07:41:34.514Z,9.15
2022-09-14T07:44:07.533Z,8.93
2022-09-14T07:46:40.799Z,8.83
2022-09-14T07:49:10.084Z,9.35
2022-09-14T07:51:38.213Z,9.15
2022-09-14T07:54:07.033Z,8.85
2022-09-14T07:56:35.280Z,8.95
2022-09-14T07:59:31.293Z,10.05
2022-09-14T08:01:52.828Z,12.25
2022-09-14T08:04:21.373Z,13.25
2022-09-14T08:06:48.873Z,13.43
2022-09-14T08:09:16.196Z,14.23
2022-09-14T08:11:43.624Z,12.65
2022-09-14T08:14:13.061Z,11.35
2022-09-14T08:16:41.698Z,10.80
2022-09-14T08:19:18.446Z,10.02
2022-09-14T08:21:48.086Z,9.25
2022-09-14T08:24:21.392Z,9.27
2022-09-14T08:26:50.075Z,9.23
2022-09-14T08:29:18.881Z,7.85
2022-09-14T08:31:47.250Z,9.43
2022-09-14T08:34:16.587Z,8.82
2022-09-14T08:36:45.402Z,9.48
2022-09-14T08:39:15.534Z,9.40
2022-09-14T08:42:00.373Z,9.15
2022-09-14T08:44:43.712Z,10.43
2022-09-14T08:47:29.444Z,9.53
2022-09-14T08:50:13.836Z,9.68
2022-09-14T08:52:45.342Z,10.15
2022-09-14T08:55:28.319Z,11.30
2022-09-14T08:58:06.080Z,10.80
2022-09-14T09:00:46.749Z,12.57
2022-09-14T09:03:36.000Z,10.73
2022-09-14T09:06:18.452Z,12.77
2022-09-14T09:08:51.708Z,11.15
2022-09-14T09:11:22.624Z,10.60
2022-09-14T09:13:52.102Z,11.95
2022-09-14T09:16:23.421Z,12.30
2022-09-14T09:18:57.255Z,12.95
2022-09-14T09:21:31.493Z,13.55
2022-09-14T09:24:23.710Z,14.45
2022-09-14T09:26:51.663Z,14.68
2022-09-14T09:29:19.245Z,14.57
2022-09-14T09:32:09.098Z,15.00
2022-09-14T09:34:55.243Z,14.18
2022-09-14T09:37:40.579Z,14.27
2022-09-14T09:40:23.351Z,17.02
2022-09-14T09:43:11.235Z,17.00
2022-09-14T09:45:59.022Z,16.20
2022-09-14T09:48:42.648Z,16.50
2022-09-14T09:51:13.893Z,17.73
2022-09-14T09:53:57.129Z,19.33
2022-09-14T09:56:28.435Z,19.90
2022-09-14T09:58:56.058Z,18.98
2022-09-14T10:01:36.361Z,19.10
2022-09-14T10:04:17.554Z,19.50
2022-09-14T10:06:48.114Z,19.60
2022-09-14T10:09:20.579Z,19.90
2022-09-14T10:11:57.442Z,19.27
2022-09-14T10:14:37.675Z,19.02
2022-09-14T10:17:18.294Z,19.15
2022-09-14T10:19:54.157Z,18.67
2022-09-14T10:22:32.826Z,20.65
2022-09-14T10:25:15.354Z,20.35
2022-09-14T10:27:49.353Z,21.13
2022-09-14T10:33:02.428Z,19.85
2022-09-14T10:35:48.146Z,20.20
2022-09-14T10:38:52.989Z,18.13
2022-09-14T10:41:34.434Z,18.48
2022-09-14T10:44:22.760Z,20.10
2022-09-14T10:47:04.741Z,16.88
2022-09-14T10:49:56.714Z,14.55
2022-09-14T10:52:48.580Z,18.50
2022-09-14T10:55:24.395Z,15.93
2022-09-14T10:58:00.733Z,15.90
2022-09-14T11:00:36.303Z,17.40
2022-09-14T11:03:25.063Z,18.40
2022-09-14T11:06:29.804Z,17.88
2022-09-14T11:09:30.683Z,20.38
2022-09-14T11:12:04.933Z,18.42
2022-09-14T11:14:51.798Z,18.83
2022-09-14T11:17:40.742Z,16.95
2022-09-14T11:20:42.916Z,18.75
2022-09-14T11:23:24.530Z,16.75
2022-09-14T11:26:00.453Z,17.52
2022-09-14T11:28:34.452Z,17.88
2022-09-14T11:33:49.085Z,15.60
2022-09-14T11:36:24.019Z,14.63
2022-09-14T11:39:10.825Z,14.45
2022-09-14T11:41:49.854Z,16.60
2022-09-14T11:44:25.143Z,16.88
2022-09-14T11:47:14.441Z,17.77
2022-09-14T11:50:02.943Z,17.40
2022-09-14T11:52:32.919Z,20.05
2022-09-14T11:55:03.092Z,18.42
2022-09-14T11:57:33.692Z,15.50
2022-09-14T12:00:06.958Z,16.05
2022-09-14T12:02:38.537Z,17.25
2022-09-14T12:05:09.418Z,17.58
2022-09-14T12:07:39.767Z,15.07
2022-09-14T12:10:19.516Z,14.98
2022-09-14T12:13:17.537Z,14.95
2022-09-14T12:15:45.394Z,13.45
2022-09-14T12:18:13.531Z,13.63
2022-09-14T12:20:48.488Z,15.15
2022-09-14T12:23:24.940Z,14.25
2022-09-14T12:26:16.973Z,14.55
2022-09-14T12:28:50.739Z,14.75
2022-09-14T12:31:55.534Z,15.63
2022-09-14T12:34:25.759Z,15.55
2022-09-14T12:37:30.413Z,17.63
2022-09-14T12:40:20.627Z,17.60
2022-09-14T12:42:50.760Z,18.85
2022-09-14T12:46:01.068Z,17.88
2022-09-14T12:48:48.008Z,16.85
2022-09-14T12:51:50.410Z,16.98
2022-09-14T12:54:28.434Z,19.45
2022-09-14T12:57:28.275Z,21.05
2022-09-14T13:00:19.118Z,21.90
2022-09-14T13:02:48.593Z,21.98
2022-09-14T13:05:24.103Z,25.00
2022-09-14T13:07:57.880Z,21.02
2022-09-14T13:10:36.639Z,26.17
2022-09-14T13:13:21.860Z,20.60
2022-09-14T13:15:54.347Z,21.48
2022-09-14T13:18:23.560Z,20.02
2022-09-14T13:20:58.244Z,22.23
2022-09-14T13:23:48.866Z,20.77
2022-09-14T13:26:45.057Z,20.08
2022-09-14T13:29:16.365Z,21.30
2022-09-14T13:31:47.142Z,22.42
2022-09-14T13:34:40.705Z,21.52
2022-09-14T13:37:14.901Z,22.23
2022-09-14T13:39:50.961Z,21.63
2022-09-14T13:42:19.403Z,24.17
2022-09-14T13:44:49.787Z,20.77
2022-09-14T13:47:21.500Z,21.42
2022-09-14T13:49:51.535Z,21.83
2022-09-14T13:52:38.524Z,21.98
2022-09-14T13:55:27.494Z,22.25
2022-09-14T13:58:24.507Z,21.52
2022-09-14T14:01:00.989Z,22.13
2022-09-14T14:03:39.889Z,22.55
2022-09-14T14:06:21.243Z,23.23
2022-09-14T14:08:59.952Z,25.35
2022-09-14T14:11:36.729Z,23.90
2022-09-14T14:14:16.629Z,23.85
2022-09-14T14:17:22.065Z,24.67
2022-09-14T14:19:52.752Z,24.88
2022-09-14T14:22:25.280Z,25.30
2022-09-14T14:27:46.839Z,24.52
2022-09-14T14:30:20.202Z,24.65
2022-09-14T14:32:56.097Z,24.55
2022-09-14T14:35:27.834Z,23.75
2022-09-14T14:37:55.877Z,23.95
2022-09-14T14:40:24.892Z,24.75
2022-09-14T14:42:52.850Z,26.08
2022-09-14T14:45:26.631Z,26.75
2022-09-14T14:47:55.775Z,26.58
2022-09-14T14:50:29.093Z,30.48
2022-09-14T14:52:57.479Z,27.10
2022-09-14T14:55:25.773Z,24.27
2022-09-14T14:57:53.873Z,24.33
2022-09-14T15:00:23.744Z,25.23
2022-09-14T15:02:51.717Z,24.63
2022-09-14T15:05:19.852Z,26.23
2022-09-14T15:07:50.144Z,26.02
2022-09-14T15:10:18.759Z,25.98
2022-09-14T15:12:46.524Z,25.85
2022-09-14T15:15:19.957Z,24.70
2022-09-14T15:17:47.932Z,24.65
2022-09-14T15:20:15.616Z,23.77
2022-09-14T15:22:43.115Z,22.15
2022-09-14T15:25:12.241Z,21.75
2022-09-14T15:27:40.832Z,20.63
2022-09-14T15:30:09.979Z,21.00
2022-09-14T15:32:37.663Z,20.90
2022-09-14T15:35:07.374Z,21.33
2022-09-14T15:37:34.839Z,22.15
2022-09-14T15:40:03.683Z,22.65
2022-09-14T15:42:31.395Z,22.55
2022-09-14T15:44:58.794Z,21.77
2022-09-14T15:47:26.300Z,21.23
2022-09-14T15:49:53.782Z,23.75
2022-09-14T15:52:21.519Z,23.30
2022-09-14T15:54:49.389Z,23.35
2022-09-14T15:57:16.917Z,23.05
2022-09-14T15:59:44.399Z,23.35
2022-09-14T16:02:14.730Z,22.67
2022-09-14T16:04:42.294Z,21.10
2022-09-14T16:07:10.069Z,23.80
2022-09-14T16:09:42.692Z,24.90
2022-09-14T16:12:12.434Z,23.20
2022-09-14T16:14:40.233Z,20.92
2022-09-14T16:17:09.566Z,24.23
2022-09-14T16:19:37.174Z,23.27
2022-09-14T16:22:04.959Z,18.70
2022-09-14T16:24:33.023Z,20.85
2022-09-14T16:27:01.020Z,23.40
2022-09-14T16:29:28.429Z,23.88
2022-09-14T16:31:56.093Z,19.25
2022-09-14T16:34:29.648Z,19.75
2022-09-14T16:36:58.856Z,23.02
2022-09-14T16:39:29.872Z,22.52
2022-09-14T16:41:58.702Z,23.42
2022-09-14T16:44:27.899Z,25.25
2022-09-14T16:46:57.917Z,21.67
2022-09-14T16:49:28.256Z,20.13
2022-09-14T16:51:57.494Z,21.52
2022-09-14T16:54:26.051Z,19.88
2022-09-14T16:56:58.265Z,19.95
2022-09-14T16:59:26.391Z,23.05
2022-09-14T17:01:55.442Z,21.00
2022-09-14T17:04:24.759Z,20.48
2022-09-14T17:06:53.370Z,18.73
2022-09-14T17:09:23.493Z,21.23
2022-09-14T17:11:51.619Z,15.93
2022-09-14T17:14:22.436Z,21.05
2022-09-14T17:16:50.178Z,23.10
2022-09-14T17:19:18.094Z,23.80
2022-09-14T17:21:47.257Z,18.98
2022-09-14T17:24:16.116Z,18.05
2022-09-14T17:26:43.873Z,15.05
2022-09-14T17:29:12.523Z,20.08
2022-09-14T17:31:42.083Z,15.07
2022-09-14T17:34:11.574Z,15.52
2022-09-14T17:36:39.326Z,15.50
2022-09-14T17:39:11.752Z,15.05
2022-09-14T17:41:42.911Z,20.13
2022-09-14T17:44:12.877Z,17.63
2022-09-14T17:46:48.575Z,15.88
2022-09-14T17:49:18.780Z,16.40
2022-09-14T17:51:46.268Z,16.58
2022-09-14T17:54:13.783Z,17.17
2022-09-14T17:56:41.572Z,16.08
2022-09-14T17:59:16.039Z,21.75
2022-09-14T18:01:43.913Z,20.17
2022-09-14T18:04:13.277Z,20.50
2022-09-14T18:06:43.402Z,23.73
2022-09-14T18:09:13.954Z,17.75
2022-09-14T18:11:42.292Z,18.05
2022-09-14T18:14:12.874Z,16.60
2022-09-14T18:16:41.377Z,20.08
2022-09-14T18:19:09.499Z,18.13
2022-09-14T18:21:37.046Z,15.93
2022-09-14T18:24:05.226Z,14.65
2022-09-14T18:26:32.750Z,16.13
2022-09-14T18:29:00.250Z,13.85
2022-09-14T18:31:28.159Z,22.67
2022-09-14T18:33:59.469Z,21.67
2022-09-14T18:36:29.424Z,19.80
2022-09-14T18:38:58.900Z,22.42
2022-09-14T18:41:29.623Z,23.05
2022-09-14T18:43:58.309Z,17.88
2022-09-14T18:46:28.273Z,25.27
2022-09-14T18:48:59.884Z,19.75
2022-09-14T18:51:29.044Z,19.40
2022-09-14T18:54:03.690Z,15.48
2022-09-14T18:56:34.860Z,17.92
2022-09-14T18:59:04.160Z,13.52
2022-09-14T19:01:34.012Z,10.77
2022-09-14T19:04:03.913Z,12.70
2022-09-14T19:06:33.263Z,20.00
2022-09-14T19:09:00.910Z,18.40
2022-09-14T19:11:30.685Z,20.90
2022-09-14T19:14:01.687Z,22.45
2022-09-14T19:16:30.389Z,18.63
2022-09-14T19:18:58.077Z,17.83
2022-09-14T19:21:28.026Z,22.10
2022-09-14T19:23:57.743Z,17.85
2022-09-14T19:26:25.289Z,20.83
2022-09-14T19:28:53.084Z,20.38
2022-09-14T19:31:23.569Z,18.55
2022-09-14T19:33:52.214Z,16.88
2022-09-14T19:36:22.516Z,10.93
2022-09-14T19:38:52.226Z,7.80
2022-09-14T19:41:21.450Z,7.43
2022-09-14T19:43:49.395Z,8.32
2022-09-14T19:46:23.490Z,10.13
2022-09-14T19:48:52.119Z,12.52
2022-09-14T19:51:25.370Z,6.70
2022-09-14T19:53:55.943Z,3.78
2022-09-14T19:56:25.990Z,4.18
2022-09-14T19:58:55.504Z,18.83
2022-09-14T20:01:25.629Z,17.33
2022-09-14T20:03:53.972Z,16.17
2022-09-14T20:06:26.096Z,12.52
2022-09-14T20:08:56.392Z,6.50
2022-09-14T20:11:26.032Z,4.53
2022-09-14T20:13:55.402Z,6.38
2022-09-14T20:16:24.662Z,2.63
2022-09-14T20:18:52.841Z,2.90
2022-09-14T20:21:23.193Z,2.65
2022-09-14T20:24:15.178Z,2.70
2022-09-14T20:26:50.574Z,3.83
2022-09-14T20:29:20.293Z,2.40
2022-09-14T20:31:48.025Z,2.92
2022-09-14T20:34:18.211Z,8.77
2022-09-14T20:36:46.915Z,8.85
2022-09-14T20:39:14.773Z,2.10
2022-09-14T20:41:42.574Z,2.00
2022-09-14T20:44:10.694Z,1.85
2022-09-14T20:46:40.907Z,1.60
2022-09-14T20:49:11.843Z,15.43
2022-09-14T20:51:40.283Z,14.25
2022-09-14T20:54:10.054Z,14.45
2022-09-14T20:56:37.616Z,27.80
2022-09-14T20:59:07.422Z,29.13
2022-09-14T21:01:37.049Z,34.97
2022-09-14T21:04:12.044Z,34.88
2022-09-14T21:06:43.395Z,47.00
2022-09-14T21:09:12.353Z,30.58
2022-09-14T21:11:40.052Z,44.95
2022-09-14T21:14:08.823Z,39.47
2022-09-14T21:16:43.125Z,32.78
2022-09-14T21:19:22.384Z,14.50
2022-09-14T21:21:50.330Z,15.00
2022-09-14T21:24:22.139Z,6.88
2022-09-14T21:26:50.774Z,7.47
2022-09-14T21:29:23.741Z,11.90
2022-09-14T21:31:52.325Z,18.40
2022-09-14T21:34:19.956Z,23.50
2022-09-14T21:36:49.715Z,19.48
2022-09-14T21:39:21.714Z,18.83
2022-09-14T21:41:54.465Z,13.77
2022-09-14T21:44:32.367Z,10.18
2022-09-14T21:47:00.792Z,32.78
2022-09-14T21:49:28.475Z,18.25
2022-09-14T21:51:55.978Z,16.15
2022-09-14T21:54:23.879Z,18.42
2022-09-14T21:56:52.946Z,6.05
2022-09-14T21:59:22.045Z,4.22
2022-09-14T22:01:50.320Z,3.10
2022-09-14T22:04:20.572Z,2.40
2022-09-14T22:06:50.512Z,1.50
2022-09-14T22:09:19.755Z,1.48
2022-09-14T22:11:47.467Z,1.80
2022-09-14T22:14:20.426Z,1.88
2022-09-14T22:16:49.104Z,1.30
2022-09-14T22:19:20.285Z,1.80
2022-09-14T22:21:48.586Z,2.22
2022-09-14T22:24:19.806Z,3.25
2022-09-14T22:26:47.793Z,4.53
2022-09-14T22:29:15.314Z,3.00
2022-09-14T22:31:44.940Z,7.13
2022-09-14T22:34:13.256Z,14.80
2022-09-14T22:36:41.086Z,13.52
2022-09-14T22:39:09.986Z,12.35
2022-09-14T22:41:37.761Z,15.45
2022-09-14T22:44:06.173Z,8.02
2022-09-14T22:46:34.350Z,8.07
2022-09-14T22:49:01.861Z,21.85
2022-09-14T22:55:43.131Z,16.55
2022-09-14T22:58:12.410Z,15.45
2022-09-14T23:00:40.935Z,19.40
2022-09-14T23:03:10.252Z,5.40
2022-09-14T23:05:39.042Z,6.05
2022-09-14T23:08:08.240Z,4.18
2022-09-14T23:10:39.011Z,4.53
2022-09-14T23:13:06.445Z,3.75
2022-09-14T23:15:37.705Z,4.07
2022-09-14T23:18:05.875Z,3.97
2022-09-14T23:20:41.722Z,3.50
2022-09-14T23:23:10.444Z,3.30
2022-09-14T23:25:40.325Z,3.78
2022-09-14T23:28:11.025Z,3.45
2022-09-14T23:30:39.040Z,3.30
2022-09-14T23:33:06.839Z,3.30
2022-09-14T23:35:37.579Z,3.58
2022-09-14T23:38:05.370Z,3.40
2022-09-14T23:40:32.868Z,3.35
2022-09-14T23:43:00.328Z,3.88
2022-09-14T23:45:27.789Z,3.35
2022-09-14T23:47:55.260Z,3.83
2022-09-14T23:50:23.392Z,3.45
2022-09-14T23:52:50.877Z,4.00
2022-09-14T23:55:18.441Z,4.28
2022-09-14T23:57:45.986Z,4.40
